sensor_id;sensor_type;location;lat;lon;timestamp;pressure;altitude;pressure_sealevel;temperature
19666;BMP180;9980;51.020;7.772;2024-03-08T00:00:11;97656.00;;;4.60
19666;BMP180;9980;51.020;7.772;2024-03-08T00:02:42;97638.00;;;4.60
19666;BMP180;9980;51.020;7.772;2024-03-08T00:05:09;97643.00;;;4.60
19666;BMP180;9980;51.020;7.772;2024-03-08T00:07:39;97628.00;;;4.50
19666;BMP180;9980;51.020;7.772;2024-03-08T00:10:09;97638.00;;;4.50
19666;BMP180;9980;51.020;7.772;2024-03-08T00:12:43;97634.00;;;4.50
19666;BMP180;9980;51.020;7.772;2024-03-08T00:15:16;97618.00;;;4.50
19666;BMP180;9980;51.020;7.772;2024-03-08T00:17:46;97632.00;;;4.50
19666;BMP180;9980;51.020;7.772;2024-03-08T00:20:14;97639.00;;;4.40
19666;BMP180;9980;51.020;7.772;2024-03-08T00:22:41;97635.00;;;4.40
19666;BMP180;9980;51.020;7.772;2024-03-08T00:25:09;97643.00;;;4.40
19666;BMP180;9980;51.020;7.772;2024-03-08T00:27:37;97630.00;;;4.40
19666;BMP180;9980;51.020;7.772;2024-03-08T00:30:06;97621.00;;;4.30
19666;BMP180;9980;51.020;7.772;2024-03-08T00:32:34;97611.00;;;4.30
19666;BMP180;9980;51.020;7.772;2024-03-08T00:35:01;97620.00;;;4.30
19666;BMP180;9980;51.020;7.772;2024-03-08T00:37:28;97634.00;;;4.30
19666;BMP180;9980;51.020;7.772;2024-03-08T00:39:55;97612.00;;;4.20
19666;BMP180;9980;51.020;7.772;2024-03-08T00:42:22;97635.00;;;4.20
19666;BMP180;9980;51.020;7.772;2024-03-08T00:44:49;97620.00;;;4.20
19666;BMP180;9980;51.020;7.772;2024-03-08T00:47:18;97609.00;;;4.20
19666;BMP180;9980;51.020;7.772;2024-03-08T00:49:45;97605.00;;;4.10
19666;BMP180;9980;51.020;7.772;2024-03-08T00:52:13;97605.00;;;4.10
19666;BMP180;9980;51.020;7.772;2024-03-08T00:54:40;97608.00;;;4.10
19666;BMP180;9980;51.020;7.772;2024-03-08T00:57:10;97605.00;;;4.10
19666;BMP180;9980;51.020;7.772;2024-03-08T00:59:40;97606.00;;;4.10
19666;BMP180;9980;51.020;7.772;2024-03-08T01:02:08;97607.00;;;4.00
19666;BMP180;9980;51.020;7.772;2024-03-08T01:04:37;97601.00;;;4.00
19666;BMP180;9980;51.020;7.772;2024-03-08T01:07:04;97590.00;;;4.00
19666;BMP180;9980;51.020;7.772;2024-03-08T01:09:31;97583.00;;;4.00
19666;BMP180;9980;51.020;7.772;2024-03-08T01:11:58;97586.00;;;3.90
19666;BMP180;9980;51.020;7.772;2024-03-08T01:14:26;97580.00;;;3.90
19666;BMP180;9980;51.020;7.772;2024-03-08T01:16:53;97581.00;;;3.90
19666;BMP180;9980;51.020;7.772;2024-03-08T01:19:21;97581.00;;;3.90
19666;BMP180;9980;51.020;7.772;2024-03-08T01:21:48;97596.00;;;3.90
19666;BMP180;9980;51.020;7.772;2024-03-08T01:24:15;97577.00;;;3.80
19666;BMP180;9980;51.020;7.772;2024-03-08T01:26:42;97564.00;;;3.80
19666;BMP180;9980;51.020;7.772;2024-03-08T01:29:10;97562.00;;;3.80
19666;BMP180;9980;51.020;7.772;2024-03-08T01:31:36;97533.00;;;3.80
19666;BMP180;9980;51.020;7.772;2024-03-08T01:34:03;97538.00;;;3.70
19666;BMP180;9980;51.020;7.772;2024-03-08T01:36:31;97537.00;;;3.70
19666;BMP180;9980;51.020;7.772;2024-03-08T01:38:58;97538.00;;;3.70
19666;BMP180;9980;51.020;7.772;2024-03-08T01:41:25;97538.00;;;3.70
19666;BMP180;9980;51.020;7.772;2024-03-08T01:43:52;97538.00;;;3.60
19666;BMP180;9980;51.020;7.772;2024-03-08T01:46:22;97531.00;;;3.60
19666;BMP180;9980;51.020;7.772;2024-03-08T01:48:50;97538.00;;;3.60
19666;BMP180;9980;51.020;7.772;2024-03-08T01:51:20;97500.00;;;3.60
19666;BMP180;9980;51.020;7.772;2024-03-08T01:53:48;97528.00;;;3.60
19666;BMP180;9980;51.020;7.772;2024-03-08T01:56:15;97530.00;;;3.50
19666;BMP180;9980;51.020;7.772;2024-03-08T01:58:43;97539.00;;;3.40
19666;BMP180;9980;51.020;7.772;2024-03-08T02:01:15;97534.00;;;3.50
19666;BMP180;9980;51.020;7.772;2024-03-08T02:03:43;97518.00;;;3.50
19666;BMP180;9980;51.020;7.772;2024-03-08T02:06:12;97486.00;;;3.50
19666;BMP180;9980;51.020;7.772;2024-03-08T02:08:45;97510.00;;;3.40
19666;BMP180;9980;51.020;7.772;2024-03-08T02:11:14;97520.00;;;3.40
19666;BMP180;9980;51.020;7.772;2024-03-08T02:13:42;97453.00;;;3.40
19666;BMP180;9980;51.020;7.772;2024-03-08T02:16:09;97476.00;;;3.40
19666;BMP180;9980;51.020;7.772;2024-03-08T02:18:36;97500.00;;;3.30
19666;BMP180;9980;51.020;7.772;2024-03-08T02:21:06;97500.00;;;3.40
19666;BMP180;9980;51.020;7.772;2024-03-08T02:23:36;97505.00;;;3.30
19666;BMP180;9980;51.020;7.772;2024-03-08T02:26:04;97475.00;;;3.30
19666;BMP180;9980;51.020;7.772;2024-03-08T02:28:32;97505.00;;;3.30
19666;BMP180;9980;51.020;7.772;2024-03-08T02:31:00;97497.00;;;3.30
19666;BMP180;9980;51.020;7.772;2024-03-08T02:33:28;97498.00;;;3.20
19666;BMP180;9980;51.020;7.772;2024-03-08T02:35:55;97481.00;;;3.30
19666;BMP180;9980;51.020;7.772;2024-03-08T02:38:23;97490.00;;;3.20
19666;BMP180;9980;51.020;7.772;2024-03-08T02:40:53;97485.00;;;3.20
19666;BMP180;9980;51.020;7.772;2024-03-08T02:43:22;97494.00;;;3.20
19666;BMP180;9980;51.020;7.772;2024-03-08T02:45:51;97485.00;;;3.20
19666;BMP180;9980;51.020;7.772;2024-03-08T02:48:21;97457.00;;;3.20
19666;BMP180;9980;51.020;7.772;2024-03-08T02:50:49;97490.00;;;3.20
19666;BMP180;9980;51.020;7.772;2024-03-08T02:53:18;97485.00;;;3.10
19666;BMP180;9980;51.020;7.772;2024-03-08T02:55:45;97487.00;;;3.10
19666;BMP180;9980;51.020;7.772;2024-03-08T02:58:13;97474.00;;;3.10
19666;BMP180;9980;51.020;7.772;2024-03-08T03:00:41;97472.00;;;3.10
19666;BMP180;9980;51.020;7.772;2024-03-08T03:03:08;97447.00;;;3.10
19666;BMP180;9980;51.020;7.772;2024-03-08T03:05:36;97454.00;;;3.10
19666;BMP180;9980;51.020;7.772;2024-03-08T03:08:03;97462.00;;;3.10
19666;BMP180;9980;51.020;7.772;2024-03-08T03:10:36;97442.00;;;3.10
19666;BMP180;9980;51.020;7.772;2024-03-08T03:13:03;97447.00;;;3.00
19666;BMP180;9980;51.020;7.772;2024-03-08T03:15:32;97430.00;;;3.00
19666;BMP180;9980;51.020;7.772;2024-03-08T03:18:00;97423.00;;;3.00
19666;BMP180;9980;51.020;7.772;2024-03-08T03:20:27;97456.00;;;3.00
19666;BMP180;9980;51.020;7.772;2024-03-08T03:22:59;97453.00;;;3.00
19666;BMP180;9980;51.020;7.772;2024-03-08T03:25:29;97455.00;;;3.00
19666;BMP180;9980;51.020;7.772;2024-03-08T03:28:02;97441.00;;;3.00
19666;BMP180;9980;51.020;7.772;2024-03-08T03:30:29;97451.00;;;3.00
19666;BMP180;9980;51.020;7.772;2024-03-08T03:33:01;97433.00;;;3.00
19666;BMP180;9980;51.020;7.772;2024-03-08T03:35:29;97442.00;;;3.00
19666;BMP180;9980;51.020;7.772;2024-03-08T03:37:56;97431.00;;;2.90
19666;BMP180;9980;51.020;7.772;2024-03-08T03:40:39;97449.00;;;2.90
19666;BMP180;9980;51.020;7.772;2024-03-08T03:43:11;97443.00;;;2.90
19666;BMP180;9980;51.020;7.772;2024-03-08T03:45:39;97445.00;;;2.90
19666;BMP180;9980;51.020;7.772;2024-03-08T03:48:08;97450.00;;;2.90
19666;BMP180;9980;51.020;7.772;2024-03-08T03:50:38;97445.00;;;2.90
19666;BMP180;9980;51.020;7.772;2024-03-08T03:53:07;97448.00;;;2.90
19666;BMP180;9980;51.020;7.772;2024-03-08T03:55:35;97428.00;;;2.90
19666;BMP180;9980;51.020;7.772;2024-03-08T03:58:07;97440.00;;;2.90
19666;BMP180;9980;51.020;7.772;2024-03-08T04:00:34;97442.00;;;2.90
19666;BMP180;9980;51.020;7.772;2024-03-08T04:03:01;97445.00;;;2.80
19666;BMP180;9980;51.020;7.772;2024-03-08T04:05:28;97432.00;;;2.80
19666;BMP180;9980;51.020;7.772;2024-03-08T04:07:55;97427.00;;;2.80
19666;BMP180;9980;51.020;7.772;2024-03-08T04:10:23;97432.00;;;2.80
19666;BMP180;9980;51.020;7.772;2024-03-08T04:12:50;97424.00;;;2.80
19666;BMP180;9980;51.020;7.772;2024-03-08T04:15:17;97412.00;;;2.80
19666;BMP180;9980;51.020;7.772;2024-03-08T04:17:44;97419.00;;;2.80
19666;BMP180;9980;51.020;7.772;2024-03-08T04:20:12;97441.00;;;2.80
19666;BMP180;9980;51.020;7.772;2024-03-08T04:22:41;97421.00;;;2.70
19666;BMP180;9980;51.020;7.772;2024-03-08T04:25:08;97409.00;;;2.70
19666;BMP180;9980;51.020;7.772;2024-03-08T04:27:36;97412.00;;;2.70
19666;BMP180;9980;51.020;7.772;2024-03-08T04:30:04;97424.00;;;2.70
19666;BMP180;9980;51.020;7.772;2024-03-08T04:32:33;97423.00;;;2.70
19666;BMP180;9980;51.020;7.772;2024-03-08T04:35:01;97430.00;;;2.70
19666;BMP180;9980;51.020;7.772;2024-03-08T04:37:28;97430.00;;;2.70
19666;BMP180;9980;51.020;7.772;2024-03-08T04:39:58;97420.00;;;2.60
19666;BMP180;9980;51.020;7.772;2024-03-08T04:42:28;97428.00;;;2.60
19666;BMP180;9980;51.020;7.772;2024-03-08T04:44:56;97417.00;;;2.60
19666;BMP180;9980;51.020;7.772;2024-03-08T04:47:23;97413.00;;;2.60
19666;BMP180;9980;51.020;7.772;2024-03-08T04:49:50;97389.00;;;2.50
19666;BMP180;9980;51.020;7.772;2024-03-08T04:52:17;97419.00;;;2.50
19666;BMP180;9980;51.020;7.772;2024-03-08T04:54:44;97418.00;;;2.50
19666;BMP180;9980;51.020;7.772;2024-03-08T04:57:11;97393.00;;;2.50
19666;BMP180;9980;51.020;7.772;2024-03-08T04:59:38;97402.00;;;2.50
19666;BMP180;9980;51.020;7.772;2024-03-08T05:02:05;97398.00;;;2.40
19666;BMP180;9980;51.020;7.772;2024-03-08T05:04:33;97402.00;;;2.40
19666;BMP180;9980;51.020;7.772;2024-03-08T05:07:01;97397.00;;;2.40
19666;BMP180;9980;51.020;7.772;2024-03-08T05:09:28;97394.00;;;2.40
19666;BMP180;9980;51.020;7.772;2024-03-08T05:11:55;97397.00;;;2.40
19666;BMP180;9980;51.020;7.772;2024-03-08T05:14:25;97398.00;;;2.40
19666;BMP180;9980;51.020;7.772;2024-03-08T05:16:52;97403.00;;;2.30
19666;BMP180;9980;51.020;7.772;2024-03-08T05:19:20;97393.00;;;2.30
19666;BMP180;9980;51.020;7.772;2024-03-08T05:21:49;97406.00;;;2.30
19666;BMP180;9980;51.020;7.772;2024-03-08T05:24:17;97398.00;;;2.30
19666;BMP180;9980;51.020;7.772;2024-03-08T05:26:46;97385.00;;;2.30
19666;BMP180;9980;51.020;7.772;2024-03-08T05:29:13;97385.00;;;2.30
19666;BMP180;9980;51.020;7.772;2024-03-08T05:31:50;97393.00;;;2.20
19666;BMP180;9980;51.020;7.772;2024-03-08T05:34:17;97398.00;;;2.20
19666;BMP180;9980;51.020;7.772;2024-03-08T05:36:45;97385.00;;;2.20
19666;BMP180;9980;51.020;7.772;2024-03-08T05:39:13;97382.00;;;2.20
19666;BMP180;9980;51.020;7.772;2024-03-08T05:41:42;97381.00;;;2.20
19666;BMP180;9980;51.020;7.772;2024-03-08T05:44:10;97369.00;;;2.20
19666;BMP180;9980;51.020;7.772;2024-03-08T05:46:37;97382.00;;;2.10
19666;BMP180;9980;51.020;7.772;2024-03-08T05:49:05;97379.00;;;2.10
19666;BMP180;9980;51.020;7.772;2024-03-08T05:51:34;97379.00;;;2.10
19666;BMP180;9980;51.020;7.772;2024-03-08T05:54:09;97378.00;;;2.10
19666;BMP180;9980;51.020;7.772;2024-03-08T05:56:38;97377.00;;;2.10
19666;BMP180;9980;51.020;7.772;2024-03-08T05:59:07;97374.00;;;2.10
19666;BMP180;9980;51.020;7.772;2024-03-08T06:01:34;97390.00;;;2.00
19666;BMP180;9980;51.020;7.772;2024-03-08T06:04:04;97361.00;;;2.00
19666;BMP180;9980;51.020;7.772;2024-03-08T06:06:31;97365.00;;;2.00
19666;BMP180;9980;51.020;7.772;2024-03-08T06:08:58;97362.00;;;2.00
19666;BMP180;9980;51.020;7.772;2024-03-08T06:11:26;97380.00;;;2.00
19666;BMP180;9980;51.020;7.772;2024-03-08T06:13:57;97365.00;;;2.00
19666;BMP180;9980;51.020;7.772;2024-03-08T06:16:27;97357.00;;;1.90
19666;BMP180;9980;51.020;7.772;2024-03-08T06:18:57;97380.00;;;2.00
19666;BMP180;9980;51.020;7.772;2024-03-08T06:21:27;97360.00;;;2.00
19666;BMP180;9980;51.020;7.772;2024-03-08T06:23:54;97363.00;;;2.00
19666;BMP180;9980;51.020;7.772;2024-03-08T06:26:22;97373.00;;;2.00
19666;BMP180;9980;51.020;7.772;2024-03-08T06:28:49;97356.00;;;1.90
19666;BMP180;9980;51.020;7.772;2024-03-08T06:31:16;97367.00;;;2.00
19666;BMP180;9980;51.020;7.772;2024-03-08T06:33:43;97376.00;;;2.00
19666;BMP180;9980;51.020;7.772;2024-03-08T06:36:10;97356.00;;;2.00
19666;BMP180;9980;51.020;7.772;2024-03-08T06:38:39;97357.00;;;2.00
19666;BMP180;9980;51.020;7.772;2024-03-08T06:41:09;97364.00;;;2.00
19666;BMP180;9980;51.020;7.772;2024-03-08T06:43:46;97350.00;;;2.00
19666;BMP180;9980;51.020;7.772;2024-03-08T06:46:15;97340.00;;;2.00
19666;BMP180;9980;51.020;7.772;2024-03-08T06:48:42;97343.00;;;2.00
19666;BMP180;9980;51.020;7.772;2024-03-08T06:51:09;97357.00;;;2.00
19666;BMP180;9980;51.020;7.772;2024-03-08T06:53:37;97349.00;;;2.00
19666;BMP180;9980;51.020;7.772;2024-03-08T06:56:05;97347.00;;;2.10
19666;BMP180;9980;51.020;7.772;2024-03-08T06:58:33;97354.00;;;2.10
19666;BMP180;9980;51.020;7.772;2024-03-08T07:01:00;97351.00;;;2.10
19666;BMP180;9980;51.020;7.772;2024-03-08T07:03:30;97361.00;;;2.20
19666;BMP180;9980;51.020;7.772;2024-03-08T07:05:59;97343.00;;;2.20
19666;BMP180;9980;51.020;7.772;2024-03-08T07:08:26;97332.00;;;2.20
19666;BMP180;9980;51.020;7.772;2024-03-08T07:10:54;97340.00;;;2.30
19666;BMP180;9980;51.020;7.772;2024-03-08T07:13:21;97332.00;;;2.40
19666;BMP180;9980;51.020;7.772;2024-03-08T07:15:48;97335.00;;;2.40
19666;BMP180;9980;51.020;7.772;2024-03-08T07:18:15;97343.00;;;2.50
19666;BMP180;9980;51.020;7.772;2024-03-08T07:20:42;97362.00;;;2.60
19666;BMP180;9980;51.020;7.772;2024-03-08T07:23:10;97329.00;;;2.60
19666;BMP180;9980;51.020;7.772;2024-03-08T07:25:37;97333.00;;;2.70
19666;BMP180;9980;51.020;7.772;2024-03-08T07:28:06;97331.00;;;2.80
19666;BMP180;9980;51.020;7.772;2024-03-08T07:30:38;97341.00;;;2.90
19666;BMP180;9980;51.020;7.772;2024-03-08T07:33:12;97331.00;;;2.90
19666;BMP180;9980;51.020;7.772;2024-03-08T07:35:40;97332.00;;;3.00
19666;BMP180;9980;51.020;7.772;2024-03-08T07:38:09;97315.00;;;3.10
19666;BMP180;9980;51.020;7.772;2024-03-08T07:40:39;97331.00;;;3.20
19666;BMP180;9980;51.020;7.772;2024-03-08T07:43:08;97315.00;;;3.30
19666;BMP180;9980;51.020;7.772;2024-03-08T07:45:35;97319.00;;;3.50
19666;BMP180;9980;51.020;7.772;2024-03-08T07:48:03;97293.00;;;3.60
19666;BMP180;9980;51.020;7.772;2024-03-08T07:50:31;97293.00;;;3.70
19666;BMP180;9980;51.020;7.772;2024-03-08T07:52:59;97318.00;;;3.80
19666;BMP180;9980;51.020;7.772;2024-03-08T07:55:28;97303.00;;;4.00
19666;BMP180;9980;51.020;7.772;2024-03-08T07:57:55;97296.00;;;4.10
19666;BMP180;9980;51.020;7.772;2024-03-08T08:00:22;97293.00;;;4.20
19666;BMP180;9980;51.020;7.772;2024-03-08T08:02:50;97295.00;;;4.40
19666;BMP180;9980;51.020;7.772;2024-03-08T08:05:17;97305.00;;;4.50
19666;BMP180;9980;51.020;7.772;2024-03-08T08:07:45;97286.00;;;4.70
19666;BMP180;9980;51.020;7.772;2024-03-08T08:10:17;97283.00;;;4.80
19666;BMP180;9980;51.020;7.772;2024-03-08T08:12:48;97274.00;;;4.90
19666;BMP180;9980;51.020;7.772;2024-03-08T08:15:15;97279.00;;;5.10
19666;BMP180;9980;51.020;7.772;2024-03-08T08:17:46;97275.00;;;5.20
19666;BMP180;9980;51.020;7.772;2024-03-08T08:20:14;97265.00;;;5.30
19666;BMP180;9980;51.020;7.772;2024-03-08T08:22:42;97270.00;;;5.50
19666;BMP180;9980;51.020;7.772;2024-03-08T08:25:12;97271.00;;;5.60
19666;BMP180;9980;51.020;7.772;2024-03-08T08:27:41;97266.00;;;5.70
19666;BMP180;9980;51.020;7.772;2024-03-08T08:30:09;97269.00;;;5.80
19666;BMP180;9980;51.020;7.772;2024-03-08T08:32:38;97253.00;;;5.90
19666;BMP180;9980;51.020;7.772;2024-03-08T08:35:14;97260.00;;;6.10
19666;BMP180;9980;51.020;7.772;2024-03-08T08:37:41;97261.00;;;6.20
19666;BMP180;9980;51.020;7.772;2024-03-08T08:40:08;97247.00;;;6.30
19666;BMP180;9980;51.020;7.772;2024-03-08T08:42:37;97271.00;;;6.40
19666;BMP180;9980;51.020;7.772;2024-03-08T08:45:06;97273.00;;;6.50
19666;BMP180;9980;51.020;7.772;2024-03-08T08:47:44;97249.00;;;6.70
19666;BMP180;9980;51.020;7.772;2024-03-08T08:50:12;97244.00;;;6.80
19666;BMP180;9980;51.020;7.772;2024-03-08T08:52:40;97237.00;;;6.90
19666;BMP180;9980;51.020;7.772;2024-03-08T08:55:08;97235.00;;;7.00
19666;BMP180;9980;51.020;7.772;2024-03-08T08:57:35;97228.00;;;7.10
19666;BMP180;9980;51.020;7.772;2024-03-08T09:00:03;97232.00;;;7.20
19666;BMP180;9980;51.020;7.772;2024-03-08T09:02:42;97217.00;;;7.30
19666;BMP180;9980;51.020;7.772;2024-03-08T09:05:09;97246.00;;;7.40
19666;BMP180;9980;51.020;7.772;2024-03-08T09:07:37;97217.00;;;7.50
19666;BMP180;9980;51.020;7.772;2024-03-08T09:10:04;97220.00;;;7.60
19666;BMP180;9980;51.020;7.772;2024-03-08T09:12:34;97225.00;;;7.70
19666;BMP180;9980;51.020;7.772;2024-03-08T09:15:01;97210.00;;;7.80
19666;BMP180;9980;51.020;7.772;2024-03-08T09:17:28;97209.00;;;7.90
19666;BMP180;9980;51.020;7.772;2024-03-08T09:19:55;97203.00;;;8.00
19666;BMP180;9980;51.020;7.772;2024-03-08T09:22:24;97201.00;;;8.10
19666;BMP180;9980;51.020;7.772;2024-03-08T09:24:51;97217.00;;;8.20
19666;BMP180;9980;51.020;7.772;2024-03-08T09:27:18;97191.00;;;8.30
19666;BMP180;9980;51.020;7.772;2024-03-08T09:29:46;97213.00;;;8.40
19666;BMP180;9980;51.020;7.772;2024-03-08T09:32:13;97201.00;;;8.50
19666;BMP180;9980;51.020;7.772;2024-03-08T09:34:40;97204.00;;;8.60
19666;BMP180;9980;51.020;7.772;2024-03-08T09:37:07;97195.00;;;8.70
19666;BMP180;9980;51.020;7.772;2024-03-08T09:39:35;97187.00;;;8.70
19666;BMP180;9980;51.020;7.772;2024-03-08T09:42:03;97180.00;;;8.80
19666;BMP180;9980;51.020;7.772;2024-03-08T09:44:30;97182.00;;;8.90
19666;BMP180;9980;51.020;7.772;2024-03-08T09:46:58;97177.00;;;9.00
19666;BMP180;9980;51.020;7.772;2024-03-08T09:49:26;97177.00;;;9.10
19666;BMP180;9980;51.020;7.772;2024-03-08T09:51:53;97183.00;;;9.20
19666;BMP180;9980;51.020;7.772;2024-03-08T09:54:20;97170.00;;;9.30
19666;BMP180;9980;51.020;7.772;2024-03-08T09:56:51;97165.00;;;9.40
19666;BMP180;9980;51.020;7.772;2024-03-08T09:59:19;97161.00;;;9.50
19666;BMP180;9980;51.020;7.772;2024-03-08T10:01:52;97164.00;;;9.60
19666;BMP180;9980;51.020;7.772;2024-03-08T10:04:19;97139.00;;;9.70
19666;BMP180;9980;51.020;7.772;2024-03-08T10:06:47;97146.00;;;9.80
19666;BMP180;9980;51.020;7.772;2024-03-08T10:09:15;97143.00;;;9.90
19666;BMP180;9980;51.020;7.772;2024-03-08T10:11:43;97161.00;;;10.00
19666;BMP180;9980;51.020;7.772;2024-03-08T10:14:11;97154.00;;;10.00
19666;BMP180;9980;51.020;7.772;2024-03-08T10:16:38;97162.00;;;10.10
19666;BMP180;9980;51.020;7.772;2024-03-08T10:19:06;97131.00;;;10.20
19666;BMP180;9980;51.020;7.772;2024-03-08T10:21:33;97152.00;;;10.20
19666;BMP180;9980;51.020;7.772;2024-03-08T10:24:02;97129.00;;;10.30
19666;BMP180;9980;51.020;7.772;2024-03-08T10:26:30;97128.00;;;10.40
19666;BMP180;9980;51.020;7.772;2024-03-08T10:28:57;97133.00;;;10.50
19666;BMP180;9980;51.020;7.772;2024-03-08T10:31:25;97131.00;;;10.60
19666;BMP180;9980;51.020;7.772;2024-03-08T10:33:52;97121.00;;;10.70
19666;BMP180;9980;51.020;7.772;2024-03-08T10:36:19;97123.00;;;10.70
19666;BMP180;9980;51.020;7.772;2024-03-08T10:38:46;97120.00;;;10.80
19666;BMP180;9980;51.020;7.772;2024-03-08T10:41:16;97130.00;;;10.90
19666;BMP180;9980;51.020;7.772;2024-03-08T10:47:00;97118.00;;;11.00
19666;BMP180;9980;51.020;7.772;2024-03-08T10:49:39;97108.00;;;11.00
19666;BMP180;9980;51.020;7.772;2024-03-08T10:52:11;97110.00;;;11.10
19666;BMP180;9980;51.020;7.772;2024-03-08T10:54:40;97115.00;;;11.20
19666;BMP180;9980;51.020;7.772;2024-03-08T10:57:13;97110.00;;;11.30
19666;BMP180;9980;51.020;7.772;2024-03-08T10:59:42;97101.00;;;11.30
19666;BMP180;9980;51.020;7.772;2024-03-08T11:02:13;97089.00;;;11.40
19666;BMP180;9980;51.020;7.772;2024-03-08T11:04:47;97078.00;;;11.50
19666;BMP180;9980;51.020;7.772;2024-03-08T11:07:16;97078.00;;;11.60
19666;BMP180;9980;51.020;7.772;2024-03-08T11:09:50;97056.00;;;11.60
19666;BMP180;9980;51.020;7.772;2024-03-08T11:12:36;97081.00;;;11.70
19666;BMP180;9980;51.020;7.772;2024-03-08T11:15:12;97068.00;;;11.80
19666;BMP180;9980;51.020;7.772;2024-03-08T11:17:45;97065.00;;;11.90
19666;BMP180;9980;51.020;7.772;2024-03-08T11:20:18;97075.00;;;12.00
19666;BMP180;9980;51.020;7.772;2024-03-08T11:22:53;97072.00;;;12.00
19666;BMP180;9980;51.020;7.772;2024-03-08T11:25:40;97053.00;;;12.10
19666;BMP180;9980;51.020;7.772;2024-03-08T11:28:21;97060.00;;;12.20
19666;BMP180;9980;51.020;7.772;2024-03-08T11:33:35;97052.00;;;12.30
19666;BMP180;9980;51.020;7.772;2024-03-08T11:36:13;97049.00;;;12.40
19666;BMP180;9980;51.020;7.772;2024-03-08T11:38:44;97046.00;;;12.50
19666;BMP180;9980;51.020;7.772;2024-03-08T11:41:11;97041.00;;;12.50
19666;BMP180;9980;51.020;7.772;2024-03-08T11:43:49;97044.00;;;12.60
19666;BMP180;9980;51.020;7.772;2024-03-08T11:46:17;97026.00;;;12.70
19666;BMP180;9980;51.020;7.772;2024-03-08T11:48:47;97025.00;;;12.70
19666;BMP180;9980;51.020;7.772;2024-03-08T11:51:15;97012.00;;;12.80
19666;BMP180;9980;51.020;7.772;2024-03-08T11:53:45;97016.00;;;12.80
19666;BMP180;9980;51.020;7.772;2024-03-08T11:56:14;97023.00;;;12.90
19666;BMP180;9980;51.020;7.772;2024-03-08T11:58:52;97014.00;;;12.90
19666;BMP180;9980;51.020;7.772;2024-03-08T12:01:20;97015.00;;;13.00
19666;BMP180;9980;51.020;7.772;2024-03-08T12:03:53;97010.00;;;13.00
19666;BMP180;9980;51.020;7.772;2024-03-08T12:06:21;97009.00;;;13.10
19666;BMP180;9980;51.020;7.772;2024-03-08T12:08:48;97017.00;;;13.10
19666;BMP180;9980;51.020;7.772;2024-03-08T12:11:18;96986.00;;;13.20
19666;BMP180;9980;51.020;7.772;2024-03-08T12:13:51;96986.00;;;13.30
19666;BMP180;9980;51.020;7.772;2024-03-08T12:16:19;96982.00;;;13.30
19666;BMP180;9980;51.020;7.772;2024-03-08T12:18:48;96974.00;;;13.30
19666;BMP180;9980;51.020;7.772;2024-03-08T12:21:15;96981.00;;;13.30
19666;BMP180;9980;51.020;7.772;2024-03-08T12:23:46;96964.00;;;13.40
19666;BMP180;9980;51.020;7.772;2024-03-08T12:26:25;96971.00;;;13.40
19666;BMP180;9980;51.020;7.772;2024-03-08T12:28:53;96971.00;;;13.40
19666;BMP180;9980;51.020;7.772;2024-03-08T12:31:21;96966.00;;;13.50
19666;BMP180;9980;51.020;7.772;2024-03-08T12:33:55;96974.00;;;13.50
19666;BMP180;9980;51.020;7.772;2024-03-08T12:36:25;96957.00;;;13.50
19666;BMP180;9980;51.020;7.772;2024-03-08T12:38:53;96962.00;;;13.50
19666;BMP180;9980;51.020;7.772;2024-03-08T12:41:23;96966.00;;;13.60
19666;BMP180;9980;51.020;7.772;2024-03-08T12:43:51;96959.00;;;13.70
19666;BMP180;9980;51.020;7.772;2024-03-08T12:46:20;96961.00;;;13.70
19666;BMP180;9980;51.020;7.772;2024-03-08T12:48:48;96968.00;;;13.80
19666;BMP180;9980;51.020;7.772;2024-03-08T12:51:17;96964.00;;;13.80
19666;BMP180;9980;51.020;7.772;2024-03-08T12:53:47;96945.00;;;13.80
19666;BMP180;9980;51.020;7.772;2024-03-08T12:56:28;96950.00;;;13.80
19666;BMP180;9980;51.020;7.772;2024-03-08T12:58:56;96936.00;;;13.90
19666;BMP180;9980;51.020;7.772;2024-03-08T13:01:24;96936.00;;;13.90
19666;BMP180;9980;51.020;7.772;2024-03-08T13:03:51;96935.00;;;14.00
19666;BMP180;9980;51.020;7.772;2024-03-08T13:06:19;96938.00;;;14.00
19666;BMP180;9980;51.020;7.772;2024-03-08T13:08:48;96914.00;;;14.00
19666;BMP180;9980;51.020;7.772;2024-03-08T13:11:15;96926.00;;;14.10
19666;BMP180;9980;51.020;7.772;2024-03-08T13:13:43;96940.00;;;14.10
19666;BMP180;9980;51.020;7.772;2024-03-08T13:16:11;96929.00;;;14.00
19666;BMP180;9980;51.020;7.772;2024-03-08T13:18:41;96919.00;;;14.10
19666;BMP180;9980;51.020;7.772;2024-03-08T13:21:10;96916.00;;;14.10
19666;BMP180;9980;51.020;7.772;2024-03-08T13:23:39;96904.00;;;14.10
19666;BMP180;9980;51.020;7.772;2024-03-08T13:26:12;96904.00;;;14.10
19666;BMP180;9980;51.020;7.772;2024-03-08T13:28:46;96904.00;;;14.20
19666;BMP180;9980;51.020;7.772;2024-03-08T13:31:13;96910.00;;;14.20
19666;BMP180;9980;51.020;7.772;2024-03-08T13:33:42;96899.00;;;14.20
19666;BMP180;9980;51.020;7.772;2024-03-08T13:36:09;96906.00;;;14.20
19666;BMP180;9980;51.020;7.772;2024-03-08T13:38:47;96916.00;;;14.20
19666;BMP180;9980;51.020;7.772;2024-03-08T13:41:16;96912.00;;;14.20
19666;BMP180;9980;51.020;7.772;2024-03-08T13:43:46;96903.00;;;14.20
19666;BMP180;9980;51.020;7.772;2024-03-08T13:46:17;96900.00;;;14.30
19666;BMP180;9980;51.020;7.772;2024-03-08T13:48:44;96890.00;;;14.30
19666;BMP180;9980;51.020;7.772;2024-03-08T13:51:11;96893.00;;;14.30
19666;BMP180;9980;51.020;7.772;2024-03-08T13:53:42;96878.00;;;14.30
19666;BMP180;9980;51.020;7.772;2024-03-08T13:56:09;96874.00;;;14.30
19666;BMP180;9980;51.020;7.772;2024-03-08T13:58:39;96884.00;;;14.30
19666;BMP180;9980;51.020;7.772;2024-03-08T14:01:07;96885.00;;;14.30
19666;BMP180;9980;51.020;7.772;2024-03-08T14:03:38;96871.00;;;14.20
19666;BMP180;9980;51.020;7.772;2024-03-08T14:06:09;96862.00;;;14.20
19666;BMP180;9980;51.020;7.772;2024-03-08T14:08:36;96857.00;;;14.20
19666;BMP180;9980;51.020;7.772;2024-03-08T14:11:05;96852.00;;;14.20
19666;BMP180;9980;51.020;7.772;2024-03-08T14:13:43;96854.00;;;14.20
19666;BMP180;9980;51.020;7.772;2024-03-08T14:16:12;96835.00;;;14.20
19666;BMP180;9980;51.020;7.772;2024-03-08T14:18:40;96838.00;;;14.20
19666;BMP180;9980;51.020;7.772;2024-03-08T14:21:08;96821.00;;;14.20
19666;BMP180;9980;51.020;7.772;2024-03-08T14:23:35;96828.00;;;14.30
19666;BMP180;9980;51.020;7.772;2024-03-08T14:26:04;96818.00;;;14.30
19666;BMP180;9980;51.020;7.772;2024-03-08T14:28:34;96818.00;;;14.30
19666;BMP180;9980;51.020;7.772;2024-03-08T14:31:01;96813.00;;;14.30
19666;BMP180;9980;51.020;7.772;2024-03-08T14:33:33;96814.00;;;14.20
19666;BMP180;9980;51.020;7.772;2024-03-08T14:36:01;96808.00;;;14.30
19666;BMP180;9980;51.020;7.772;2024-03-08T14:38:28;96816.00;;;14.30
19666;BMP180;9980;51.020;7.772;2024-03-08T14:40:55;96809.00;;;14.30
19666;BMP180;9980;51.020;7.772;2024-03-08T14:43:22;96807.00;;;14.30
19666;BMP180;9980;51.020;7.772;2024-03-08T14:45:50;96809.00;;;14.30